Time;durP1;ratioP1;P1;durP2;ratioP2;P2;SDS_P1;SDS_P2;PMS_P1;PMS_P2;Temp;Humidity;BMP_temperature;BMP_pressure;BME280_temperature;BME280_humidity;BME280_pressure;Samples;Min_cycle;Max_cycle;Signal;HPM_P1;HPM_P2
2020/12/30 00:01:06;;;;;;;9.90;3.60;;;;;;;11.21;51.91;94132.19;5050551;28;20196;-70
2020/12/30 00:03:31;;;;;;;9.43;3.93;;;;;;;11.43;51.32;94133.16;5050949;28;20186;-71
2020/12/30 00:05:57;;;;;;;6.33;3.60;;;;;;;11.40;51.59;94128.56;5050442;28;20167;-70
2020/12/30 00:08:22;;;;;;;8.43;3.87;;;;;;;11.22;52.27;94152.41;5050620;28;20581;-69
2020/12/30 00:10:47;;;;;;;12.07;3.50;;;;;;;10.79;53.29;94164.53;5050401;28;20172;-70
2020/12/30 00:13:13;;;;;;;7.63;3.53;;;;;;;10.88;52.73;94157.00;5050728;28;20168;-71
2020/12/30 00:15:39;;;;;;;11.80;3.23;;;;;;;10.90;52.99;94146.75;5050455;28;20574;-71
2020/12/30 00:18:04;;;;;;;8.30;3.67;;;;;;;10.83;53.59;94142.09;5052054;28;20180;-72
2020/12/30 00:20:30;;;;;;;7.67;3.17;;;;;;;10.75;53.85;94140.47;5054013;28;20725;-70
2020/12/30 00:22:55;;;;;;;8.73;3.83;;;;;;;10.88;53.66;94162.34;5054114;28;20263;-71
2020/12/30 00:25:21;;;;;;;7.93;3.33;;;;;;;10.63;54.22;94169.31;5054221;28;20211;-70
2020/12/30 00:27:46;;;;;;;9.53;3.80;;;;;;;10.87;53.06;94131.44;5053898;28;20230;-74
2020/12/30 00:30:13;;;;;;;6.53;3.30;;;;;;;10.65;53.81;94141.09;5054199;28;20642;-70
2020/12/30 00:32:42;;;;;;;9.83;3.13;;;;;;;10.35;55.23;94153.69;5054011;28;20198;-70
2020/12/30 00:35:07;;;;;;;6.17;2.83;;;;;;;10.20;55.60;94158.78;5036304;28;20561;-70
2020/12/30 00:37:33;;;;;;;8.90;3.43;;;;;;;10.20;55.39;94160.69;5053564;28;20596;-70
2020/12/30 00:39:58;;;;;;;6.57;3.37;;;;;;;10.40;55.14;94159.47;5053861;28;20167;-71
2020/12/30 00:42:34;;;;;;;5.67;3.23;;;;;;;10.43;55.32;94148.06;5053699;28;20168;-71
2020/12/30 00:45:00;;;;;;;6.27;3.27;;;;;;;10.15;55.42;94155.66;5053781;28;20167;-70
2020/12/30 00:47:26;;;;;;;6.53;4.37;;;;;;;10.27;55.60;94129.56;5053550;28;20581;-70
2020/12/30 00:49:52;;;;;;;6.07;3.10;;;;;;;10.56;54.99;94135.28;5053841;28;20557;-70
2020/12/30 00:52:17;;;;;;;11.27;3.93;;;;;;;10.63;54.76;94146.03;5053286;28;20574;-71
2020/12/30 00:54:43;;;;;;;9.87;3.50;;;;;;;10.60;54.56;94150.19;5053653;28;20156;-70
2020/12/30 00:57:08;;;;;;;8.30;3.33;;;;;;;10.73;54.37;94140.06;5053679;28;20255;-70
2020/12/30 00:59:34;;;;;;;7.33;3.20;;;;;;;10.69;54.30;94136.56;5053338;28;20195;-70
2020/12/30 01:01:59;;;;;;;6.30;3.17;;;;;;;10.08;56.05;94133.06;5053803;28;20203;-71
2020/12/30 01:04:25;;;;;;;10.87;4.00;;;;;;;10.23;55.50;94141.28;5053315;28;20589;-70
2020/12/30 01:06:51;;;;;;;13.50;3.97;;;;;;;10.62;54.69;94138.41;5053437;28;20199;-70
2020/12/30 01:09:16;;;;;;;4.03;2.60;;;;;;;10.57;55.12;94134.16;5053093;28;20241;-70
2020/12/30 01:11:42;;;;;;;6.43;3.50;;;;;;;10.39;55.89;94135.81;5053247;28;20578;-71
2020/12/30 01:14:07;;;;;;;6.33;3.80;;;;;;;10.10;56.30;94127.41;5053151;28;20171;-70
2020/12/30 01:16:33;;;;;;;6.07;3.30;;;;;;;10.35;56.28;94129.66;5035527;28;20196;-71
2020/12/30 01:18:58;;;;;;;8.23;3.37;;;;;;;10.31;55.84;94138.38;5053144;28;20184;-71
2020/12/30 01:21:24;;;;;;;5.80;3.30;;;;;;;10.37;56.22;94130.81;5052868;28;20191;-70
2020/12/30 01:23:49;;;;;;;6.13;3.20;;;;;;;10.16;56.38;94131.28;5052984;28;20199;-70
2020/12/30 01:26:15;;;;;;;4.93;3.47;;;;;;;9.97;57.39;94131.38;5052903;28;20175;-70
2020/12/30 01:28:41;;;;;;;6.90;2.77;;;;;;;9.88;56.79;94106.88;5052525;28;20624;-69
2020/12/30 01:31:07;;;;;;;8.30;3.23;;;;;;;9.92;57.04;94126.34;5052188;28;20203;-70
2020/12/30 01:33:32;;;;;;;15.07;3.57;;;;;;;10.04;56.29;94104.81;5052972;28;20648;-74
2020/12/30 01:35:58;;;;;;;8.10;3.40;;;;;;;10.01;56.92;94118.88;5052712;28;20642;-71
2020/12/30 01:38:23;;;;;;;6.33;3.03;;;;;;;10.26;55.80;94104.00;5052783;28;20195;-72
2020/12/30 01:40:55;;;;;;;6.23;3.10;;;;;;;10.28;55.05;94087.66;5052553;28;20227;-70
2020/12/30 01:43:21;;;;;;;8.07;3.50;;;;;;;10.32;55.06;94107.91;5052524;28;20190;-70
2020/12/30 01:45:51;;;;;;;11.90;2.87;;;;;;;10.26;55.18;94117.34;5034646;28;20626;-70
2020/12/30 01:48:17;;;;;;;9.40;3.20;;;;;;;10.16;55.37;94101.94;5052688;28;20268;-71
2020/12/30 01:50:43;;;;;;;7.60;3.10;;;;;;;10.11;55.90;94098.81;5034506;28;20982;-71
2020/12/30 01:53:09;;;;;;;5.43;3.10;;;;;;;10.32;55.55;94107.91;5052205;28;20578;-71
2020/12/30 01:55:40;;;;;;;9.37;3.67;;;;;;;9.99;56.64;94097.16;5034300;28;20223;-70
2020/12/30 01:58:06;;;;;;;8.50;3.90;;;;;;;10.00;55.85;94112.00;5034843;28;20171;-71
2020/12/30 02:00:33;;;;;;;9.33;4.40;;;;;;;9.99;56.91;94095.25;5034484;28;21031;-70
2020/12/30 02:03:03;;;;;;;6.63;3.83;;;;;;;10.08;56.76;94097.63;5034297;28;21201;-72
2020/12/30 02:05:32;;;;;;;6.27;3.17;;;;;;;9.62;57.71;94105.72;5052180;28;20578;-69
2020/12/30 02:08:07;;;;;;;8.47;3.00;;;;;;;9.91;57.19;94079.50;5051872;28;20617;-70
2020/12/30 02:10:32;;;;;;;11.77;3.53;;;;;;;9.85;56.96;94089.69;5052160;28;20631;-69
2020/12/30 02:12:58;;;;;;;13.10;4.13;;;;;;;9.49;57.77;94102.50;5051944;28;20577;-70
2020/12/30 02:15:27;;;;;;;5.07;3.10;;;;;;;9.39;58.24;94092.44;5052065;28;20214;-70
2020/12/30 02:17:53;;;;;;;5.87;3.30;;;;;;;9.76;57.28;94081.16;5051840;28;20211;-72
2020/12/30 02:20:18;;;;;;;6.40;3.47;;;;;;;9.86;57.52;94082.47;5051927;28;21017;-69
2020/12/30 02:22:48;;;;;;;5.77;2.90;;;;;;;9.81;57.06;94070.97;5051587;28;20172;-72
2020/12/30 02:25:14;;;;;;;8.33;4.03;;;;;;;9.89;56.41;94073.75;5018224;28;20263;-70
2020/12/30 02:27:39;;;;;;;10.47;4.10;;;;;;;9.69;57.47;94075.75;5051495;28;20617;-72
2020/12/30 02:30:06;;;;;;;7.93;3.97;;;;;;;9.53;58.21;94075.88;5051845;28;20203;-69
2020/12/30 02:32:31;;;;;;;11.47;4.07;;;;;;;9.20;58.58;94073.81;5051748;28;20674;-69
2020/12/30 02:34:57;;;;;;;7.43;4.67;;;;;;;9.21;58.64;94062.06;5051414;28;20609;-71
2020/12/30 02:37:22;;;;;;;10.10;4.50;;;;;;;9.51;58.03;94059.50;5033956;28;20178;-70
2020/12/30 02:39:48;;;;;;;8.13;4.17;;;;;;;9.43;58.44;94076.50;5051538;28;20168;-70
2020/12/30 02:42:15;;;;;;;11.33;5.30;;;;;;;9.21;58.68;94080.72;5051196;28;20207;-70
2020/12/30 02:44:40;;;;;;;12.10;4.40;;;;;;;9.46;58.12;94051.78;5051608;28;20530;-70
2020/12/30 02:47:06;;;;;;;11.37;4.23;;;;;;;9.44;57.99;94062.81;5033885;28;20581;-71
2020/12/30 02:49:31;;;;;;;8.23;4.37;;;;;;;9.16;58.89;94067.69;5051363;28;20187;-69
2020/12/30 02:51:57;;;;;;;9.77;3.67;;;;;;;9.01;59.69;94064.78;5051445;28;20183;-70
2020/12/30 02:54:22;;;;;;;9.00;4.23;;;;;;;9.26;58.87;94067.88;5051384;28;20167;-68
2020/12/30 02:56:48;;;;;;;8.47;3.57;;;;;;;9.49;58.83;94062.53;5051228;28;20175;-69
2020/12/30 02:59:13;;;;;;;8.63;3.73;;;;;;;9.35;58.61;94096.16;5051421;28;20533;-69
2020/12/30 03:01:43;;;;;;;7.90;3.83;;;;;;;9.31;59.14;94064.13;5051057;28;20239;-69
2020/12/30 03:04:08;;;;;;;7.33;3.93;;;;;;;9.51;58.73;94033.59;5051290;28;20190;-69
2020/12/30 03:06:34;;;;;;;6.40;3.63;;;;;;;9.59;58.80;94074.44;5051165;28;20574;-68
2020/12/30 03:08:59;;;;;;;9.10;4.37;;;;;;;8.89;60.10;94059.63;5051293;28;20226;-70
2020/12/30 03:11:26;;;;;;;11.03;4.40;;;;;;;8.60;60.71;94076.97;5051054;28;20179;-69
2020/12/30 03:13:52;;;;;;;7.37;4.07;;;;;;;9.02;60.08;94071.63;5051262;28;20327;-69
2020/12/30 03:16:17;;;;;;;8.07;4.13;;;;;;;9.35;59.40;94040.19;5033271;28;20992;-69
2020/12/30 03:18:43;;;;;;;9.23;4.43;;;;;;;9.21;59.29;94081.47;5033413;28;20179;-70
2020/12/30 03:21:08;;;;;;;14.40;5.07;;;;;;;8.93;59.98;94073.00;5051173;28;20195;-70
2020/12/30 03:23:34;;;;;;;6.17;4.00;;;;;;;9.28;59.23;94048.84;5050835;28;20241;-70
2020/12/30 03:25:59;;;;;;;8.60;3.93;;;;;;;8.79;59.99;94075.41;5051264;28;20262;-69
2020/12/30 03:28:25;;;;;;;6.43;3.97;;;;;;;8.93;60.00;94054.38;5050748;28;20266;-70
2020/12/30 03:30:50;;;;;;;7.53;3.80;;;;;;;8.94;60.38;94040.69;5051056;28;20171;-70
2020/12/30 03:33:16;;;;;;;7.30;3.43;;;;;;;8.92;59.64;94069.56;5050945;28;20265;-69
2020/12/30 03:35:41;;;;;;;8.27;3.30;;;;;;;9.11;59.72;94066.09;5051087;28;20670;-71
2020/12/30 03:38:07;;;;;;;7.67;3.53;;;;;;;9.38;59.09;94068.81;5050830;28;20580;-69
2020/12/30 03:40:32;;;;;;;8.47;3.33;;;;;;;9.31;58.94;94064.13;5050927;28;20753;-70
2020/12/30 03:42:58;;;;;;;6.73;3.43;;;;;;;9.13;59.86;94060.41;5050861;28;20207;-69
2020/12/30 03:45:23;;;;;;;7.40;3.70;;;;;;;9.46;59.16;94046.47;5051140;28;20199;-70
2020/12/30 03:47:49;;;;;;;8.10;3.60;;;;;;;9.28;58.18;94022.97;5050917;28;20251;-69
2020/12/30 03:50:14;;;;;;;9.47;3.70;;;;;;;9.60;58.23;94048.59;5050601;28;20241;-69
2020/12/30 03:52:40;;;;;;;5.00;3.60;;;;;;;9.27;59.46;94058.75;5051565;28;20222;-69
2020/12/30 03:55:05;;;;;;;4.80;3.30;;;;;;;9.58;58.45;94026.84;5054200;28;20261;-69
2020/12/30 03:57:31;;;;;;;9.47;3.57;;;;;;;9.47;58.95;94051.44;5054518;28;20257;-70
2020/12/30 03:59:56;;;;;;;8.40;2.90;;;;;;;9.18;59.71;94068.09;5054169;28;20164;-70
2020/12/30 04:02:22;;;;;;;7.67;3.43;;;;;;;9.12;59.61;94056.19;5054424;28;20211;-69
2020/12/30 04:04:47;;;;;;;11.13;3.20;;;;;;;9.50;58.91;94034.75;5054233;28;20650;-69
2020/12/30 04:07:13;;;;;;;6.00;3.07;;;;;;;9.24;59.26;94074.66;5054472;28;20593;-70
2020/12/30 04:09:39;;;;;;;9.60;3.63;;;;;;;9.37;58.25;94072.56;5054139;28;20556;-71
2020/12/30 04:12:04;;;;;;;6.87;3.27;;;;;;;9.63;57.90;94029.97;5054212;28;20200;-69
2020/12/30 04:14:30;;;;;;;9.53;3.43;;;;;;;9.47;58.85;94026.69;5054656;28;20670;-70
2020/12/30 04:16:55;;;;;;;7.17;3.30;;;;;;;9.07;60.22;94069.81;5036311;28;20188;-70
2020/12/30 04:19:21;;;;;;;9.00;3.60;;;;;;;9.20;59.76;94041.84;5054528;28;20610;-71
2020/12/30 04:21:47;;;;;;;10.20;3.63;;;;;;;9.45;59.10;94037.69;5053997;28;20266;-70
2020/12/30 04:24:12;;;;;;;5.23;3.37;;;;;;;9.21;59.72;94065.50;5054309;28;20990;-71
2020/12/30 04:26:38;;;;;;;5.47;3.30;;;;;;;9.32;59.89;94025.72;5053732;28;20229;-69
2020/12/30 04:29:03;;;;;;;8.33;3.10;;;;;;;9.19;59.67;94057.06;5054121;28;20176;-69
2020/12/30 04:31:29;;;;;;;7.70;3.17;;;;;;;9.16;59.93;94089.00;5053834;28;20266;-69
2020/12/30 04:33:54;;;;;;;6.97;3.47;;;;;;;9.31;59.48;94008.16;5053971;28;20196;-70
2020/12/30 04:36:20;;;;;;;5.17;3.20;;;;;;;8.95;60.21;94044.88;5053942;28;20175;-69
2020/12/30 04:38:45;;;;;;;6.53;3.60;;;;;;;9.01;60.96;94050.69;5044270;28;20674;-70
2020/12/30 04:41:12;;;;;;;18.63;3.97;;;;;;;9.37;59.16;94038.72;5033780;28;20240;-69
2020/12/30 04:43:39;;;;;;;11.73;3.33;;;;;;;9.32;58.94;94072.91;5033494;28;20176;-68
2020/12/30 04:46:05;;;;;;;4.90;3.27;;;;;;;9.07;60.48;94024.53;5016092;28;20578;-69
2020/12/30 04:48:34;;;;;;;6.80;3.37;;;;;;;9.11;60.85;94006.72;5033459;28;20681;-69
2020/12/30 04:51:02;;;;;;;10.07;3.57;;;;;;;9.04;59.64;94055.31;5033934;28;20173;-70
2020/12/30 04:53:28;;;;;;;9.67;3.90;;;;;;;9.16;58.70;94041.06;5033526;28;21204;-71
2020/12/30 04:55:58;;;;;;;4.93;3.37;;;;;;;9.06;59.75;94065.63;5016125;28;21153;-70
2020/12/30 04:58:25;;;;;;;7.87;3.20;;;;;;;9.33;58.37;94059.22;5033239;28;20591;-69
2020/12/30 05:00:51;;;;;;;10.37;3.43;;;;;;;9.61;57.76;94047.47;5017638;28;21277;-68
2020/12/30 05:03:17;;;;;;;9.67;3.17;;;;;;;9.43;58.73;94071.19;5033236;28;20626;-68
2020/12/30 05:05:42;;;;;;;7.30;3.30;;;;;;;9.47;58.43;94059.41;4999679;28;20255;-68
2020/12/30 05:08:09;;;;;;;8.30;3.60;;;;;;;9.58;58.38;94030.28;5033512;28;20641;-69
2020/12/30 05:10:36;;;;;;;10.43;4.27;;;;;;;9.18;59.52;94060.88;5033143;28;20639;-68
2020/12/30 05:13:01;;;;;;;7.03;3.53;;;;;;;9.33;59.09;94053.13;5033505;28;20657;-68
2020/12/30 05:15:27;;;;;;;13.07;3.37;;;;;;;9.10;59.71;94021.94;5033160;28;21011;-69
2020/12/30 05:17:53;;;;;;;6.77;3.30;;;;;;;9.21;59.38;94070.06;5033340;28;20219;-68
2020/12/30 05:20:18;;;;;;;8.30;3.50;;;;;;;9.08;59.02;94058.78;4998842;28;20181;-68
2020/12/30 05:22:44;;;;;;;5.87;3.20;;;;;;;9.40;58.73;94018.59;5033259;28;20187;-71
2020/12/30 05:25:09;;;;;;;8.33;3.60;;;;;;;9.14;59.12;94049.38;5033044;28;20728;-69
2020/12/30 05:27:36;;;;;;;6.93;3.37;;;;;;;9.15;58.93;94050.19;5007522;28;20275;-69
2020/12/30 05:30:01;;;;;;;5.77;3.83;;;;;;;9.35;58.25;94032.22;5013392;28;20204;-68
2020/12/30 05:32:27;;;;;;;4.17;3.07;;;;;;;9.06;58.97;94041.66;5012935;28;20961;-69
2020/12/30 05:34:53;;;;;;;6.33;3.67;;;;;;;9.17;59.13;94021.28;5013243;28;20185;-68
2020/12/30 05:37:31;;;;;;;6.80;3.80;;;;;;;9.27;58.63;94037.44;5012946;28;20185;-67
2020/12/30 05:39:56;;;;;;;6.90;3.80;;;;;;;9.10;58.63;94034.50;4996123;28;20248;-69
2020/12/30 05:42:22;;;;;;;9.90;4.10;;;;;;;8.87;59.73;94008.63;4978879;28;20647;-68
2020/12/30 05:44:49;;;;;;;6.90;4.17;;;;;;;9.11;59.50;93996.84;5013001;28;20173;-69
2020/12/30 05:47:15;;;;;;;9.83;3.80;;;;;;;9.20;58.76;94021.34;5012734;28;20169;-68
2020/12/30 05:49:41;;;;;;;7.10;4.23;;;;;;;9.17;59.24;94005.31;5012960;28;20595;-68
2020/12/30 05:52:14;;;;;;;11.90;4.27;;;;;;;9.20;57.97;94008.03;5012776;28;20588;-68
2020/12/30 05:54:46;;;;;;;13.87;5.63;;;;;;;9.07;58.03;94030.63;4994820;28;20595;-68
2020/12/30 05:57:37;;;;;;;11.50;4.83;;;;;;;8.86;58.79;94012.41;4995539;28;20603;-68
2020/12/30 06:00:11;;;;;;;15.33;5.07;;;;;;;9.11;58.55;94006.72;5009018;28;20610;-68
2020/12/30 06:02:46;;;;;;;11.27;5.10;;;;;;;8.81;59.70;94035.88;5012579;28;20591;-68
2020/12/30 06:05:13;;;;;;;8.20;4.20;;;;;;;8.53;59.77;94030.81;4995160;28;21171;-70
2020/12/30 06:07:39;;;;;;;12.17;4.67;;;;;;;8.74;59.46;94023.97;5012678;28;20631;-69
2020/12/30 06:10:06;;;;;;;12.87;4.60;;;;;;;8.71;60.36;94018.63;4995357;28;20694;-69
2020/12/30 06:12:37;;;;;;;10.73;5.00;;;;;;;8.60;60.92;94061.00;5012393;28;20596;-69
2020/12/30 06:15:02;;;;;;;6.47;4.07;;;;;;;8.34;61.73;94047.53;4995308;28;20669;-68
2020/12/30 06:17:29;;;;;;;11.03;5.63;;;;;;;8.43;62.05;94040.91;5012239;28;21193;-68
2020/12/30 06:19:54;;;;;;;16.23;5.57;;;;;;;8.42;62.28;94057.25;5012176;28;20184;-68
2020/12/30 06:22:21;;;;;;;12.53;5.57;;;;;;;8.69;60.82;94026.16;5012308;28;20623;-69
2020/12/30 06:24:50;;;;;;;10.67;4.87;;;;;;;8.41;62.32;94039.72;5012301;28;20184;-69
2020/12/30 06:27:18;;;;;;;13.20;5.07;;;;;;;8.74;61.15;94039.94;5011927;28;20635;-69
2020/12/30 06:29:45;;;;;;;10.57;4.43;;;;;;;8.49;61.81;94065.34;4994789;28;20588;-69
2020/12/30 06:32:10;;;;;;;11.07;6.00;;;;;;;8.41;61.67;94093.69;5011985;28;20587;-68
2020/12/30 06:34:36;;;;;;;12.27;5.57;;;;;;;8.42;61.53;94041.28;5012020;28;20966;-68
2020/12/30 06:37:05;;;;;;;12.27;4.37;;;;;;;8.47;61.67;94059.59;5011748;28;20625;-68
2020/12/30 06:39:30;;;;;;;11.63;4.93;;;;;;;8.53;61.74;94036.13;5012164;28;21213;-68
2020/12/30 06:42:02;;;;;;;14.80;5.37;;;;;;;8.76;60.57;94073.47;5011350;28;20643;-68
2020/12/30 06:44:38;;;;;;;10.47;4.60;;;;;;;8.96;59.64;94088.25;5011979;28;20276;-69
2020/12/30 06:47:04;;;;;;;21.20;5.07;;;;;;;8.99;60.08;94075.00;5011725;28;20587;-69
2020/12/30 06:49:30;;;;;;;16.40;4.73;;;;;;;8.85;60.48;94092.63;5011902;28;20663;-70
2020/12/30 06:51:55;;;;;;;13.30;4.50;;;;;;;8.91;60.28;94085.88;5012149;28;21183;-68
2020/12/30 06:54:21;;;;;;;9.53;4.83;;;;;;;8.98;59.71;94094.78;5011792;28;20256;-69
2020/12/30 06:56:47;;;;;;;8.70;4.13;;;;;;;9.04;60.17;94076.63;4994212;28;20259;-69
2020/12/30 06:59:16;;;;;;;12.43;4.47;;;;;;;9.26;59.64;94089.19;4994146;28;20191;-70
2020/12/30 07:01:57;;;;;;;13.00;4.20;;;;;;;9.31;59.22;94098.75;5011773;28;20690;-70
2020/12/30 07:04:24;;;;;;;20.63;5.10;;;;;;;9.10;60.08;94122.38;4993900;28;21127;-70
2020/12/30 07:06:49;;;;;;;14.50;5.50;;;;;;;9.21;59.64;94112.69;5011786;28;21154;-70
2020/12/30 07:09:15;;;;;;;14.00;5.83;;;;;;;9.03;59.28;94088.38;5011422;28;20654;-70
2020/12/30 07:11:47;;;;;;;15.93;5.70;;;;;;;8.86;60.83;94097.59;5011568;28;20173;-69
2020/12/30 07:14:13;;;;;;;10.17;5.30;;;;;;;9.13;60.10;94122.41;5011230;28;20212;-70
2020/12/30 07:16:40;;;;;;;12.93;5.13;;;;;;;9.14;59.61;94136.50;5011204;28;20592;-71
2020/12/30 07:19:10;;;;;;;19.87;7.07;;;;;;;9.08;59.84;94136.03;5011412;28;20698;-69
2020/12/30 07:21:56;;;;;;;14.53;6.03;;;;;;;8.95;59.95;94129.31;5011524;28;20742;-70
2020/12/30 07:24:26;;;;;;;12.53;5.83;;;;;;;9.14;59.98;94123.19;5011170;28;20591;-68
2020/12/30 07:26:54;;;;;;;18.43;6.47;;;;;;;9.17;59.68;94115.28;5011311;28;20630;-68
2020/12/30 07:29:20;;;;;;;12.73;5.43;;;;;;;9.19;59.08;94121.00;5014537;28;20970;-68
2020/12/30 07:31:50;;;;;;;18.40;5.50;;;;;;;9.31;59.31;94130.72;5015596;28;20576;-71
2020/12/30 07:34:19;;;;;;;13.10;5.67;;;;;;;9.61;57.95;94117.53;5015288;28;20173;-70
2020/12/30 07:36:45;;;;;;;14.13;5.67;;;;;;;9.49;58.79;94088.41;5015587;28;20575;-68
2020/12/30 07:39:11;;;;;;;16.20;5.50;;;;;;;9.24;60.54;94080.75;5015119;28;21157;-69
2020/12/30 07:41:37;;;;;;;11.47;4.90;;;;;;;9.17;59.15;94090.53;5015270;28;20623;-69
2020/12/30 07:44:05;;;;;;;10.00;4.80;;;;;;;9.12;58.86;94107.56;5015014;28;20173;-71
2020/12/30 07:46:31;;;;;;;15.80;5.70;;;;;;;9.16;58.96;94111.06;5015396;28;20619;-68
2020/12/30 07:49:09;;;;;;;15.13;6.40;;;;;;;9.16;59.10;94116.41;5014990;28;20658;-68
2020/12/30 07:51:35;;;;;;;14.40;6.83;;;;;;;9.32;59.03;94126.19;4998239;28;20172;-68
2020/12/30 07:54:00;;;;;;;17.63;6.00;;;;;;;9.48;58.13;94122.28;4997320;28;20919;-71
2020/12/30 07:56:26;;;;;;;14.37;6.23;;;;;;;9.50;58.52;94119.25;5014976;28;20196;-73
2020/12/30 07:58:52;;;;;;;14.53;6.43;;;;;;;9.60;58.76;94128.56;5014935;28;20181;-68
2020/12/30 08:01:21;;;;;;;9.87;5.67;;;;;;;9.59;59.08;94119.75;5014858;28;20291;-68
2020/12/30 08:03:46;;;;;;;12.43;4.77;;;;;;;9.69;57.90;94115.72;5014905;28;20169;-68
2020/12/30 08:06:13;;;;;;;18.27;5.80;;;;;;;9.90;57.40;94107.28;5014817;28;20675;-69
2020/12/30 08:08:43;;;;;;;18.97;5.70;;;;;;;9.93;57.20;94110.00;5014839;28;20169;-68
2020/12/30 08:11:08;;;;;;;10.60;5.10;;;;;;;9.86;57.40;94119.78;5014474;28;20951;-69
2020/12/30 08:13:35;;;;;;;15.20;5.20;;;;;;;10.04;57.46;94121.59;5014664;28;20619;-68
2020/12/30 08:16:00;;;;;;;14.63;5.90;;;;;;;10.05;58.02;94111.72;5014570;28;20173;-70
2020/12/30 08:18:26;;;;;;;14.33;4.43;;;;;;;10.08;54.77;94121.63;4997041;28;21211;-70
2020/12/30 08:20:51;;;;;;;7.87;4.53;;;;;;;10.05;56.07;94128.47;4996436;28;20213;-68
2020/12/30 08:23:18;;;;;;;12.20;4.60;;;;;;;10.14;55.78;94120.19;5014553;28;20247;-68
2020/12/30 08:25:47;;;;;;;9.57;4.80;;;;;;;10.13;55.61;94108.00;5014500;28;20235;-69
2020/12/30 08:28:13;;;;;;;10.47;4.17;;;;;;;9.95;56.88;94113.09;5014233;28;21324;-70
2020/12/30 08:30:38;;;;;;;9.00;4.70;;;;;;;10.01;57.14;94116.97;4997006;28;20627;-68
2020/12/30 08:33:10;;;;;;;13.63;4.27;;;;;;;10.33;54.96;94098.78;5014159;28;20193;-70
2020/12/30 08:35:48;;;;;;;9.40;5.10;;;;;;;10.51;54.62;94111.56;4996974;28;20235;-69
2020/12/30 08:38:20;;;;;;;20.90;5.47;;;;;;;10.40;55.08;94116.00;4996397;28;20614;-70
2020/12/30 08:40:48;;;;;;;3.30;2.00;;;;;;;10.95;47.75;94076.97;4997027;28;20618;-70
2020/12/30 08:43:44;;;;;;;12.20;2.10;;;;;;;11.42;46.73;94104.13;5014028;28;20602;-69
2020/12/30 08:46:11;;;;;;;9.97;3.90;;;;;;;10.99;52.19;94101.03;4934359;29;21284;-70
2020/12/30 08:48:50;;;;;;;11.90;4.60;;;;;;;11.16;52.70;94092.44;4918681;29;20615;-69
2020/12/30 08:51:32;;;;;;;13.60;6.13;;;;;;;11.36;52.03;94084.97;4919141;29;20599;-69
2020/12/30 08:53:57;;;;;;;17.67;5.90;;;;;;;11.17;52.49;94069.94;4934810;29;20983;-71
2020/12/30 08:56:23;;;;;;;16.17;5.17;;;;;;;11.16;52.74;94091.66;4934182;29;20619;-71
2020/12/30 08:58:55;;;;;;;15.10;6.03;;;;;;;10.99;54.08;94074.31;4934362;29;20279;-70
2020/12/30 09:01:22;;;;;;;12.47;5.87;;;;;;;11.08;53.64;94067.56;4934041;29;20203;-69
2020/12/30 09:03:48;;;;;;;20.33;5.33;;;;;;;11.07;53.18;94086.63;4934034;28;20639;-70
2020/12/30 09:06:27;;;;;;;17.07;4.83;;;;;;;11.21;53.14;94073.38;4934003;29;20803;-70
2020/12/30 09:08:53;;;;;;;13.07;5.70;;;;;;;11.30;52.33;94083.78;4934177;29;20246;-69
2020/12/30 09:11:18;;;;;;;15.40;5.20;;;;;;;11.22;52.35;94074.16;4933846;29;20697;-70
2020/12/30 09:13:44;;;;;;;12.33;4.97;;;;;;;11.41;52.08;94065.94;4934088;29;20246;-68
2020/12/30 09:16:10;;;;;;;13.67;5.17;;;;;;;11.69;51.42;94054.69;4933852;29;20191;-71
2020/12/30 09:18:36;;;;;;;20.03;5.80;;;;;;;11.86;51.04;94048.72;4933962;29;20191;-69
2020/12/30 09:21:02;;;;;;;12.93;4.73;;;;;;;11.83;50.25;94052.13;4917432;29;20651;-71
2020/12/30 09:23:28;;;;;;;16.77;4.80;;;;;;;11.75;49.69;94063.13;4982868;28;20189;-68
2020/12/30 09:25:54;;;;;;;11.30;4.37;;;;;;;11.86;49.49;94043.38;5013498;28;20686;-68
2020/12/30 09:28:21;;;;;;;9.53;3.80;;;;;;;12.02;49.34;94043.09;5012947;28;20228;-69
2020/12/30 09:30:47;;;;;;;10.20;2.73;;;;;;;12.23;48.28;94034.38;5013429;28;20595;-69
2020/12/30 09:33:14;;;;;;;6.80;2.80;;;;;;;12.31;49.11;94053.94;5012947;28;20591;-69
2020/12/30 09:35:39;;;;;;;8.40;3.33;;;;;;;12.31;48.76;94041.31;5013250;28;20591;-69
2020/12/30 09:38:05;;;;;;;8.97;2.80;;;;;;;12.31;49.13;94054.69;5012719;28;20594;-69
2020/12/30 09:40:30;;;;;;;7.67;3.27;;;;;;;12.34;48.63;94040.53;5012892;28;20173;-69
2020/12/30 09:43:12;;;;;;;12.43;5.07;;;;;;;12.48;47.91;94036.41;5012527;28;20263;-68
2020/12/30 09:45:37;;;;;;;14.40;3.53;;;;;;;12.44;48.13;94039.06;5012825;28;20594;-67
2020/12/30 09:48:16;;;;;;;8.33;3.13;;;;;;;12.43;48.28;94024.16;4995337;28;20579;-70
2020/12/30 09:50:42;;;;;;;9.00;2.63;;;;;;;12.45;48.78;94032.56;5012067;28;20169;-68
2020/12/30 09:53:08;;;;;;;11.60;2.97;;;;;;;12.47;48.65;94032.97;5012675;28;20631;-68
2020/12/30 09:55:33;;;;;;;6.90;3.33;;;;;;;12.49;48.36;94054.00;5012664;28;20600;-68
2020/12/30 09:57:59;;;;;;;6.63;3.53;;;;;;;12.44;48.84;94036.38;5012445;28;20213;-68
2020/12/30 10:00:25;;;;;;;9.13;3.17;;;;;;;12.76;48.35;94041.09;4994565;28;20196;-69
2020/12/30 10:02:50;;;;;;;10.03;2.90;;;;;;;12.78;48.97;94044.91;5012574;28;20243;-69
2020/12/30 10:05:16;;;;;;;10.70;3.87;;;;;;;13.31;47.78;94036.22;5012625;28;20244;-69
2020/12/30 10:07:42;;;;;;;10.17;4.20;;;;;;;13.85;46.87;94020.84;5012626;28;20168;-69
2020/12/30 10:10:07;;;;;;;9.87;3.27;;;;;;;14.33;45.16;94024.97;4994768;28;20277;-69
2020/12/30 10:12:38;;;;;;;11.07;3.27;;;;;;;14.73;43.41;94031.72;5012523;28;20184;-71
2020/12/30 10:15:10;;;;;;;8.23;3.60;;;;;;;15.08;42.65;94006.56;5012140;28;20204;-70
2020/12/30 10:17:36;;;;;;;10.27;3.10;;;;;;;14.88;43.26;94008.22;5012633;28;20607;-68
2020/12/30 10:20:03;;;;;;;7.30;3.10;;;;;;;14.75;43.40;94018.66;5012205;28;21028;-72
2020/12/30 10:22:28;;;;;;;13.80;4.17;;;;;;;14.36;43.18;94006.13;4994871;28;20205;-69
2020/12/30 10:24:54;;;;;;;8.70;3.03;;;;;;;14.28;44.21;94015.38;5011973;28;20603;-70
2020/12/30 10:27:19;;;;;;;6.17;3.27;;;;;;;14.12;44.96;94015.03;5012067;28;20257;-69
2020/12/30 10:29:45;;;;;;;12.83;3.90;;;;;;;13.95;44.78;94008.56;5011689;28;20181;-74
2020/12/30 10:32:11;;;;;;;8.43;3.93;;;;;;;13.88;44.86;94006.69;5012135;28;20180;-69
2020/12/30 10:34:36;;;;;;;13.23;3.70;;;;;;;13.67;45.80;94002.09;5011947;28;20200;-68
2020/12/30 10:37:03;;;;;;;12.50;3.13;;;;;;;13.73;46.28;94008.59;4994739;28;20176;-68
2020/12/30 10:39:28;;;;;;;14.50;3.50;;;;;;;13.93;49.96;94000.16;5012177;28;20181;-70
2020/12/30 10:41:55;;;;;;;7.10;2.60;;;;;;;13.87;44.94;93993.66;5011661;28;20737;-69
2020/12/30 10:44:21;;;;;;;8.60;3.03;;;;;;;13.86;44.24;93990.22;5011981;28;20239;-68
2020/12/30 10:46:46;;;;;;;7.93;3.40;;;;;;;13.93;45.34;93992.09;4993656;28;20599;-68
2020/12/30 10:49:12;;;;;;;16.73;3.13;;;;;;;13.97;43.10;93987.47;5011939;28;20579;-67
2020/12/30 10:51:37;;;;;;;3.10;2.10;;;;;;;13.89;44.44;93981.38;5011801;28;20174;-68
2020/12/30 10:54:03;;;;;;;6.63;2.53;;;;;;;14.16;42.84;93978.22;5011880;28;20822;-68
2020/12/30 10:56:28;;;;;;;4.73;2.07;;;;;;;14.13;41.82;93970.94;5011594;28;20300;-69
2020/12/30 10:58:54;;;;;;;10.83;2.90;;;;;;;14.09;42.66;93987.06;5011688;28;20263;-69
2020/12/30 11:01:19;;;;;;;3.17;1.80;;;;;;;14.16;41.23;93987.03;5011335;28;20302;-69
2020/12/30 11:03:45;;;;;;;8.67;2.57;;;;;;;14.18;41.44;93978.59;5011389;28;20805;-69
2020/12/30 11:06:10;;;;;;;9.83;3.10;;;;;;;14.27;41.82;93977.03;5011916;28;20216;-69
2020/12/30 11:08:36;;;;;;;7.47;3.17;;;;;;;14.24;42.14;93961.69;5011641;28;20234;-69
2020/12/30 11:11:03;;;;;;;10.90;3.57;;;;;;;14.33;43.42;93976.63;5011600;28;20660;-69
2020/12/30 11:13:29;;;;;;;10.00;3.23;;;;;;;14.40;43.66;93955.09;5011465;28;20224;-69
2020/12/30 11:15:54;;;;;;;4.87;2.60;;;;;;;14.41;42.08;93959.31;5011498;28;20587;-69
2020/12/30 11:18:20;;;;;;;8.43;3.10;;;;;;;14.44;40.67;93961.22;5011278;28;20259;-68
2020/12/30 11:20:46;;;;;;;7.90;1.90;;;;;;;14.35;40.66;93950.13;4977849;28;20181;-68
2020/12/30 11:23:11;;;;;;;4.10;1.70;;;;;;;14.35;41.23;93955.50;5011583;28;20284;-68
2020/12/30 11:25:37;;;;;;;3.63;2.30;;;;;;;14.17;42.43;93956.34;5011594;28;20205;-69
2020/12/30 11:28:03;;;;;;;6.10;2.50;;;;;;;14.36;42.08;93967.78;5011351;28;20270;-69
2020/12/30 11:30:30;;;;;;;10.63;2.50;;;;;;;14.49;42.14;93961.59;5011197;28;20173;-69
2020/12/30 11:32:55;;;;;;;6.60;2.40;;;;;;;14.46;42.22;93958.91;5011242;28;20686;-68